Time;durP1;ratioP1;P1;durP2;ratioP2;P2;SDS_P1;SDS_P2;PMS_P1;PMS_P2;Temp;Humidity;BMP_temperature;BMP_pressure;BME280_temperature;BME280_humidity;BME280_pressure;Samples;Min_cycle;Max_cycle;Signal;HPM_P1;HPM_P2
2023/09/05 00:00:15;;;;;;;0.00;0.00;;;;;;;18.57;57.69;100547.94;5013400;28;20079;-72
2023/09/05 00:02:41;;;;;;;0.00;0.00;;;;;;;18.53;57.92;100538.63;5008009;28;20033;-73
2023/09/05 00:05:08;;;;;;;0.00;0.00;;;;;;;18.47;58.22;100540.72;5000347;28;20041;-76
2023/09/05 00:07:37;;;;;;;0.00;0.00;;;;;;;18.44;58.51;100535.81;5010823;28;20091;-73
2023/09/05 00:10:05;;;;;;;0.00;0.00;;;;;;;18.45;59.21;100531.09;5003228;28;20033;-73
2023/09/05 00:12:31;;;;;;;0.00;0.00;;;;;;;18.43;59.27;100525.06;5019945;28;20021;-73
2023/09/05 00:14:58;;;;;;;0.00;0.00;;;;;;;18.41;58.88;100521.78;5014979;28;20047;-74
2023/09/05 00:17:23;;;;;;;0.00;0.00;;;;;;;18.42;59.38;100517.88;5019363;28;20116;-74
2023/09/05 00:19:49;;;;;;;0.00;0.00;;;;;;;18.43;59.55;100516.75;4998004;28;21736;-74
2023/09/05 00:22:15;;;;;;;0.00;0.00;;;;;;;18.39;59.98;100522.09;5014919;28;20480;-74
2023/09/05 00:24:40;;;;;;;0.00;0.00;;;;;;;18.35;60.26;100518.31;4999786;28;20567;-74
2023/09/05 00:27:09;;;;;;;0.00;0.00;;;;;;;18.30;59.90;100513.75;5009618;28;20176;-74
2023/09/05 00:29:36;;;;;;;0.00;0.00;;;;;;;18.30;60.18;100518.47;5021591;28;20080;-73
2023/09/05 00:32:03;;;;;;;0.00;0.00;;;;;;;18.28;60.27;100521.56;5014885;28;20429;-73
2023/09/05 00:34:31;;;;;;;0.00;0.00;;;;;;;18.24;60.15;100520.53;5021643;28;20032;-73
2023/09/05 00:36:58;;;;;;;0.00;0.00;;;;;;;18.20;60.52;100521.50;5009874;28;20099;-72
2023/09/05 00:39:33;;;;;;;0.00;0.00;;;;;;;18.07;60.89;100521.22;5012738;28;20045;-73
2023/09/05 00:42:00;;;;;;;0.00;0.00;;;;;;;18.05;61.31;100522.69;5010093;28;20376;-73
2023/09/05 00:44:26;;;;;;;0.00;0.00;;;;;;;17.98;61.04;100516.78;5012370;28;20060;-73
2023/09/05 00:46:55;;;;;;;0.00;0.00;;;;;;;17.88;61.27;100518.63;5007630;28;20022;-73
2023/09/05 00:49:28;;;;;;;0.00;0.00;;;;;;;17.83;61.15;100521.50;5017628;28;20025;-72
2023/09/05 00:51:59;;;;;;;0.00;0.00;;;;;;;17.74;61.52;100512.31;5017991;28;20034;-72
2023/09/05 00:54:25;;;;;;;0.00;0.00;;;;;;;17.60;61.82;100507.63;5003332;28;20037;-73
2023/09/05 00:56:51;;;;;;;0.00;0.00;;;;;;;17.56;61.76;100511.34;5010985;28;20033;-71
2023/09/05 00:59:18;;;;;;;0.00;0.00;;;;;;;17.50;61.95;100502.34;5003033;28;20364;-72
2023/09/05 01:01:43;;;;;;;0.00;0.00;;;;;;;17.47;62.10;100508.50;5017418;28;20033;-72
2023/09/05 01:04:09;;;;;;;0.00;0.00;;;;;;;17.39;62.29;100500.94;4999264;28;20427;-73
2023/09/05 01:06:59;;;;;;;0.00;0.00;;;;;;;17.40;62.61;100514.44;5008863;28;20053;-73
2023/09/05 01:09:37;;;;;;;0.03;0.03;;;;;;;17.28;62.97;100501.16;5013399;28;20044;-73
2023/09/05 01:12:03;;;;;;;0.00;0.00;;;;;;;17.28;62.96;100512.19;5019969;28;20044;-72
2023/09/05 01:14:28;;;;;;;0.00;0.00;;;;;;;17.27;63.52;100515.28;5012426;28;20507;-72
2023/09/05 01:17:01;;;;;;;0.00;0.00;;;;;;;17.24;63.20;100513.97;5019778;28;20155;-72
2023/09/05 01:19:28;;;;;;;0.00;0.00;;;;;;;17.21;63.38;100509.03;5017271;28;20120;-72
2023/09/05 01:22:02;;;;;;;0.00;0.00;;;;;;;17.20;63.62;100521.25;5006453;28;20120;-72
2023/09/05 01:24:28;;;;;;;0.00;0.00;;;;;;;17.15;64.08;100502.00;5017849;28;20083;-73
2023/09/05 01:26:55;;;;;;;0.00;0.00;;;;;;;17.18;64.35;100500.56;5010723;28;20053;-73
2023/09/05 01:29:30;;;;;;;0.00;0.00;;;;;;;17.18;64.96;100495.84;5015867;28;20068;-73
2023/09/05 01:31:59;;;;;;;0.00;0.00;;;;;;;17.16;64.52;100483.50;5011142;28;20068;-74
2023/09/05 01:34:25;;;;;;;0.00;0.00;;;;;;;17.19;65.18;100491.16;5012851;28;20037;-72
2023/09/05 01:36:51;;;;;;;0.00;0.00;;;;;;;17.24;65.54;100489.09;4999623;28;20805;-73
2023/09/05 01:39:17;;;;;;;0.00;0.00;;;;;;;17.24;65.80;100478.06;5018716;28;20056;-73
2023/09/05 01:41:42;;;;;;;0.00;0.00;;;;;;;17.23;65.74;100470.03;4996046;28;20053;-73
2023/09/05 01:44:08;;;;;;;0.00;0.00;;;;;;;17.28;65.91;100478.22;5010244;28;20033;-73
2023/09/05 01:46:33;;;;;;;0.00;0.00;;;;;;;17.22;66.03;100460.94;5027782;28;20435;-74
2023/09/05 01:48:59;;;;;;;0.00;0.00;;;;;;;17.34;65.93;100470.66;5001125;28;20025;-72
2023/09/05 01:51:24;;;;;;;0.00;0.00;;;;;;;17.37;66.03;100470.03;5020541;28;20696;-74
2023/09/05 01:53:49;;;;;;;0.00;0.00;;;;;;;17.31;66.25;100446.41;5008011;28;20157;-74
2023/09/05 01:56:15;;;;;;;0.00;0.00;;;;;;;17.35;66.76;100447.44;5025633;28;20592;-73
2023/09/05 01:58:40;;;;;;;0.00;0.00;;;;;;;17.39;66.47;100434.59;5008283;28;20030;-71
2023/09/05 02:01:06;;;;;;;0.00;0.00;;;;;;;17.39;66.35;100429.06;5003319;28;20034;-73
2023/09/05 02:03:32;;;;;;;0.00;0.00;;;;;;;17.38;66.76;100444.03;5018061;28;20468;-72
2023/09/05 02:05:57;;;;;;;0.00;0.00;;;;;;;17.44;67.51;100428.97;5018291;28;20076;-72
2023/09/05 02:08:23;;;;;;;0.00;0.00;;;;;;;17.38;67.02;100419.97;5018273;28;20037;-74
2023/09/05 02:10:48;;;;;;;0.00;0.00;;;;;;;17.39;67.10;100426.31;5005418;28;20030;-72
2023/09/05 02:13:14;;;;;;;0.00;0.00;;;;;;;17.39;67.61;100429.06;5008655;28;20037;-72
2023/09/05 02:15:39;;;;;;;0.00;0.00;;;;;;;17.35;67.75;100417.03;5006826;28;20026;-72
2023/09/05 02:18:10;;;;;;;0.00;0.00;;;;;;;17.32;67.77;100423.16;5009378;28;20041;-72
2023/09/05 02:20:37;;;;;;;0.00;0.00;;;;;;;17.26;68.16;100415.00;5010923;28;20423;-73
2023/09/05 02:23:02;;;;;;;0.00;0.00;;;;;;;17.26;68.77;100417.75;4998756;28;20427;-73
2023/09/05 02:25:28;;;;;;;0.00;0.00;;;;;;;17.24;68.93;100417.25;5016408;28;20057;-72
2023/09/05 02:27:53;;;;;;;0.00;0.00;;;;;;;17.23;69.42;100415.63;4998193;28;20025;-72
2023/09/05 02:30:19;;;;;;;0.00;0.00;;;;;;;17.22;69.54;100411.22;5011975;28;20037;-73
2023/09/05 02:32:49;;;;;;;0.00;0.00;;;;;;;17.22;69.68;100413.97;5000984;28;20484;-72
2023/09/05 02:35:15;;;;;;;0.00;0.00;;;;;;;17.20;69.74;100420.94;5023695;28;20130;-72
2023/09/05 02:37:40;;;;;;;0.00;0.00;;;;;;;17.21;69.77;100423.38;5008742;28;20057;-72
2023/09/05 02:40:06;;;;;;;0.00;0.00;;;;;;;17.23;70.69;100421.13;5013069;28;20692;-73
2023/09/05 02:42:32;;;;;;;0.00;0.00;;;;;;;17.21;70.73;100428.91;5001254;28;20187;-72
2023/09/05 02:44:57;;;;;;;0.00;0.00;;;;;;;17.15;71.05;100424.63;5014720;28;20472;-72
2023/09/05 02:47:22;;;;;;;0.00;0.00;;;;;;;17.14;70.95;100420.22;5019160;28;20025;-73
2023/09/05 02:49:48;;;;;;;0.00;0.00;;;;;;;17.13;71.29;100426.06;5018216;28;20033;-72
2023/09/05 02:52:14;;;;;;;0.00;0.00;;;;;;;17.08;71.40;100427.84;5006862;28;20034;-72
2023/09/05 02:54:39;;;;;;;0.00;0.00;;;;;;;17.06;71.43;100420.97;5006551;28;20124;-72
2023/09/05 02:57:04;;;;;;;0.00;0.00;;;;;;;17.03;71.64;100416.06;5017020;28;20037;-72
2023/09/05 02:59:30;;;;;;;0.00;0.00;;;;;;;17.05;71.58;100419.31;5009145;28;20060;-72
2023/09/05 03:01:56;;;;;;;0.00;0.00;;;;;;;17.06;72.02;100409.91;5010675;28;20022;-72
2023/09/05 03:04:21;;;;;;;0.00;0.00;;;;;;;17.01;72.12;100408.09;5019921;28;20083;-73
2023/09/05 03:06:47;;;;;;;0.00;0.00;;;;;;;16.98;72.35;100418.94;5007782;28;20064;-73
2023/09/05 03:09:12;;;;;;;0.00;0.00;;;;;;;16.94;72.75;100418.75;5012338;28;20026;-75
2023/09/05 03:11:39;;;;;;;0.00;0.00;;;;;;;16.89;72.63;100422.44;5019220;28;20029;-74
2023/09/05 03:14:04;;;;;;;0.00;0.00;;;;;;;16.84;73.31;100427.22;5002337;28;20155;-74
2023/09/05 03:16:30;;;;;;;0.00;0.00;;;;;;;16.83;73.29;100429.13;5014572;28;20136;-74
2023/09/05 03:18:59;;;;;;;0.00;0.00;;;;;;;16.83;73.75;100423.63;5011775;28;20136;-74
2023/09/05 03:21:28;;;;;;;0.00;0.00;;;;;;;16.79;73.67;100422.59;4999029;28;20040;-74
2023/09/05 03:23:53;;;;;;;0.00;0.00;;;;;;;16.69;73.77;100414.53;4991941;28;20032;-74
2023/09/05 03:26:19;;;;;;;0.00;0.00;;;;;;;16.70;74.07;100418.94;4978971;28;20058;-73
2023/09/05 03:28:47;;;;;;;0.00;0.00;;;;;;;16.71;74.42;100409.53;4977715;28;20041;-74
2023/09/05 03:31:13;;;;;;;0.00;0.00;;;;;;;16.70;74.28;100416.16;5015805;28;20018;-74
2023/09/05 03:33:38;;;;;;;0.00;0.00;;;;;;;16.64;74.37;100420.16;5001802;28;20436;-74
2023/09/05 03:36:05;;;;;;;0.00;0.00;;;;;;;16.60;74.48;100424.66;5006032;28;20119;-72
2023/09/05 03:38:31;;;;;;;0.00;0.00;;;;;;;16.58;75.20;100423.00;4999071;28;20060;-72
2023/09/05 03:40:58;;;;;;;0.00;0.00;;;;;;;16.52;74.96;100413.19;5004033;28;20045;-73
2023/09/05 03:43:23;;;;;;;0.00;0.00;;;;;;;16.54;75.04;100415.66;5012858;28;20028;-72
2023/09/05 03:45:49;;;;;;;0.00;0.00;;;;;;;16.45;75.66;100390.72;5011988;28;20033;-73
2023/09/05 03:48:15;;;;;;;0.00;0.00;;;;;;;16.48;75.85;100398.38;5016803;28;20025;-75
2023/09/05 03:50:41;;;;;;;0.00;0.00;;;;;;;16.47;75.75;100382.97;5002060;28;20035;-72
2023/09/05 03:53:06;;;;;;;0.00;0.00;;;;;;;16.50;75.51;100387.88;5012587;28;20041;-73
2023/09/05 03:55:34;;;;;;;0.00;0.00;;;;;;;16.48;76.12;100383.75;5017995;28;20052;-73
2023/09/05 03:58:03;;;;;;;0.00;0.00;;;;;;;16.49;76.30;100386.22;5007496;28;20045;-73
2023/09/05 04:00:32;;;;;;;0.00;0.00;;;;;;;16.47;76.21;100379.34;5022194;28;20029;-74
2023/09/05 04:02:57;;;;;;;0.00;0.00;;;;;;;16.48;76.47;100368.00;5002963;28;20029;-73
2023/09/05 04:05:23;;;;;;;0.00;0.00;;;;;;;16.47;76.79;100369.16;5015674;28;20048;-75
2023/09/05 04:07:48;;;;;;;0.00;0.00;;;;;;;16.51;77.01;100367.41;5001845;28;20454;-73
2023/09/05 04:10:14;;;;;;;0.00;0.00;;;;;;;16.56;77.12;100383.88;5005004;28;20614;-73
2023/09/05 04:12:39;;;;;;;0.00;0.00;;;;;;;16.56;77.15;100383.06;5011007;28;20033;-72
2023/09/05 04:15:05;;;;;;;0.00;0.00;;;;;;;16.51;77.49;100383.97;4980403;28;20067;-71
2023/09/05 04:17:31;;;;;;;0.00;0.00;;;;;;;16.45;77.81;100399.00;5011956;28;20068;-72
2023/09/05 04:19:56;;;;;;;0.00;0.00;;;;;;;16.36;77.86;100398.88;4997085;28;20033;-72
2023/09/05 04:22:25;;;;;;;0.00;0.00;;;;;;;16.31;78.12;100398.16;5009741;28;20476;-72
2023/09/05 04:24:52;;;;;;;0.00;0.00;;;;;;;16.29;78.42;100398.47;5005350;28;20464;-73
2023/09/05 04:27:17;;;;;;;0.00;0.00;;;;;;;16.25;78.08;100396.63;5001614;28;20040;-72
2023/09/05 04:29:43;;;;;;;0.00;0.00;;;;;;;16.28;78.58;100390.50;5012928;28;20037;-74
2023/09/05 04:32:08;;;;;;;0.00;0.00;;;;;;;16.38;78.43;100396.66;5001278;28;20084;-72
2023/09/05 04:34:34;;;;;;;0.00;0.00;;;;;;;16.42;78.80;100399.59;5002992;28;20025;-74
2023/09/05 04:37:00;;;;;;;0.00;0.00;;;;;;;16.46;78.59;100403.38;5009373;28;20396;-73
2023/09/05 04:39:25;;;;;;;0.00;0.00;;;;;;;16.46;78.76;100405.34;5006494;28;20064;-73
2023/09/05 04:41:51;;;;;;;0.00;0.00;;;;;;;16.37;78.75;100405.25;5016781;28;20407;-73
2023/09/05 04:44:16;;;;;;;0.00;0.00;;;;;;;16.35;78.93;100407.47;5011727;28;20033;-74
2023/09/05 04:46:45;;;;;;;0.00;0.00;;;;;;;16.35;79.39;100408.31;5015769;28;20041;-74
2023/09/05 04:49:11;;;;;;;0.00;0.00;;;;;;;16.28;79.08;100410.66;5011814;28;20116;-72
2023/09/05 04:51:37;;;;;;;0.00;0.00;;;;;;;16.23;79.30;100411.53;5002478;28;20079;-73
2023/09/05 04:54:03;;;;;;;0.00;0.00;;;;;;;16.16;79.86;100410.31;5002249;28;20046;-73
2023/09/05 04:56:28;;;;;;;0.00;0.00;;;;;;;16.13;80.09;100417.25;4990461;28;20026;-74
2023/09/05 04:58:53;;;;;;;0.00;0.00;;;;;;;16.09;80.01;100416.25;5004687;28;20729;-71
2023/09/05 05:01:19;;;;;;;0.00;0.00;;;;;;;16.04;80.48;100408.03;5010417;28;20511;-72
2023/09/05 05:03:44;;;;;;;0.00;0.00;;;;;;;15.96;80.23;100401.28;5016420;28;20033;-73
2023/09/05 05:06:10;;;;;;;0.00;0.00;;;;;;;15.99;80.15;100405.34;5010810;28;20060;-73
2023/09/05 05:08:35;;;;;;;0.00;0.00;;;;;;;15.99;80.70;100410.88;5007381;28;20459;-72
2023/09/05 05:11:05;;;;;;;0.00;0.00;;;;;;;15.95;81.06;100401.59;5012443;28;20025;-73
2023/09/05 05:13:30;;;;;;;0.00;0.00;;;;;;;15.90;81.17;100385.13;5002953;28;20487;-71
2023/09/05 05:15:56;;;;;;;0.00;0.00;;;;;;;15.97;80.92;100385.53;5009404;28;20482;-71
2023/09/05 05:18:21;;;;;;;0.00;0.00;;;;;;;15.96;81.00;100373.72;4999211;28;20053;-72
2023/09/05 05:20:46;;;;;;;0.00;0.00;;;;;;;16.00;81.37;100379.44;4997699;28;20038;-72
2023/09/05 05:23:12;;;;;;;0.00;0.00;;;;;;;16.04;81.34;100383.22;5001371;28;20129;-72
2023/09/05 05:25:37;;;;;;;0.00;0.00;;;;;;;16.07;81.29;100381.81;5018499;28;20052;-73
2023/09/05 05:28:04;;;;;;;0.00;0.00;;;;;;;16.06;81.51;100386.47;5007324;28;20038;-73
2023/09/05 05:30:37;;;;;;;0.00;0.00;;;;;;;16.03;81.74;100395.34;4975917;28;20519;-72
2023/09/05 05:33:03;;;;;;;0.00;0.00;;;;;;;16.04;81.87;100405.28;5012163;28;20033;-73
2023/09/05 05:35:28;;;;;;;0.00;0.00;;;;;;;16.01;82.08;100406.69;4997784;28;20034;-74
2023/09/05 05:37:54;;;;;;;0.00;0.00;;;;;;;16.08;82.14;100413.75;5007279;28;20040;-73
2023/09/05 05:40:19;;;;;;;0.00;0.00;;;;;;;16.08;81.96;100399.97;5001973;28;20029;-72
2023/09/05 05:42:44;;;;;;;0.00;0.00;;;;;;;16.27;81.83;100410.94;4987270;28;20491;-73
2023/09/05 05:45:10;;;;;;;0.00;0.00;;;;;;;16.36;81.95;100409.91;5015803;28;20033;-72
2023/09/05 05:47:35;;;;;;;0.00;0.00;;;;;;;16.42;81.56;100424.44;4992308;28;20042;-73
2023/09/05 05:50:01;;;;;;;0.00;0.00;;;;;;;16.46;81.93;100431.00;5011466;28;20038;-72
2023/09/05 05:52:27;;;;;;;0.00;0.00;;;;;;;16.55;81.62;100429.16;5001549;28;20029;-71
2023/09/05 05:54:52;;;;;;;0.00;0.00;;;;;;;16.57;81.38;100426.91;5014533;28;20037;-73
2023/09/05 05:57:18;;;;;;;0.00;0.00;;;;;;;16.56;81.43;100424.47;5026816;28;20038;-72
2023/09/05 05:59:43;;;;;;;0.00;0.00;;;;;;;16.55;81.79;100434.66;4999919;28;20026;-73
2023/09/05 06:02:08;;;;;;;0.00;0.00;;;;;;;16.56;81.71;100424.47;5013052;28;20109;-73
2023/09/05 06:04:34;;;;;;;0.00;0.00;;;;;;;16.64;81.33;100420.97;4996481;28;20209;-72
2023/09/05 06:07:00;;;;;;;0.00;0.00;;;;;;;16.78;81.52;100420.97;5021584;28;20029;-71
2023/09/05 06:09:27;;;;;;;0.00;0.00;;;;;;;16.87;81.58;100424.66;5015300;28;20125;-74
2023/09/05 06:11:53;;;;;;;0.00;0.00;;;;;;;17.06;80.64;100426.50;5023350;28;20061;-74
2023/09/05 06:14:19;;;;;;;0.00;0.00;;;;;;;17.10;80.51;100422.81;5010608;28;20034;-72
2023/09/05 06:16:46;;;;;;;0.00;0.00;;;;;;;17.16;80.72;100423.50;5003794;28;20073;-72
2023/09/05 06:19:12;;;;;;;0.00;0.00;;;;;;;17.21;80.15;100423.38;5016041;28;20368;-71
2023/09/05 06:21:38;;;;;;;0.00;0.00;;;;;;;17.33;79.92;100430.31;5012043;28;20034;-73
2023/09/05 06:24:04;;;;;;;0.00;0.00;;;;;;;17.50;79.86;100430.47;5021536;28;20730;-72
2023/09/05 06:26:29;;;;;;;0.00;0.00;;;;;;;17.61;78.98;100437.41;4996494;28;20057;-71
2023/09/05 06:28:55;;;;;;;0.00;0.00;;;;;;;17.61;79.50;100437.41;5002791;28;20041;-73
2023/09/05 06:31:20;;;;;;;0.00;0.00;;;;;;;17.67;79.70;100445.56;5014610;28;20427;-73
2023/09/05 06:33:46;;;;;;;0.00;0.00;;;;;;;17.73;79.57;100449.84;5006645;28;20084;-69
2023/09/05 06:36:11;;;;;;;0.00;0.00;;;;;;;17.75;79.28;100436.50;4993656;28;20387;-69
2023/09/05 06:38:37;;;;;;;0.00;0.00;;;;;;;17.86;78.71;100443.44;5010843;28;20491;-71
2023/09/05 06:41:07;;;;;;;0.00;0.00;;;;;;;17.94;78.56;100445.47;5014489;28;20435;-71
2023/09/05 06:43:33;;;;;;;0.00;0.00;;;;;;;18.07;78.49;100448.47;5014777;28;20041;-70
2023/09/05 06:46:06;;;;;;;0.00;0.00;;;;;;;18.24;78.32;100451.34;5002619;28;20033;-68
2023/09/05 06:48:34;;;;;;;0.00;0.00;;;;;;;18.47;78.15;100445.75;5023407;28;20032;-71
2023/09/05 06:50:59;;;;;;;0.00;0.00;;;;;;;18.71;77.41;100441.78;4996502;28;20041;-69
2023/09/05 06:53:27;;;;;;;0.00;0.00;;;;;;;18.97;76.50;100445.47;5014182;28;20044;-70
2023/09/05 06:55:52;;;;;;;0.00;0.00;;;;;;;19.12;75.79;100435.88;5011282;28;20034;-69
2023/09/05 06:58:18;;;;;;;0.00;0.00;;;;;;;19.15;75.51;100439.97;5016981;28;20041;-69
2023/09/05 07:00:44;;;;;;;0.00;0.00;;;;;;;19.14;76.13;100441.09;5025071;28;20534;-73
2023/09/05 07:03:10;;;;;;;0.00;0.00;;;;;;;19.09;75.78;100433.75;5020723;28;20033;-73
2023/09/05 07:05:40;;;;;;;0.00;0.00;;;;;;;19.15;76.08;100437.19;5016828;28;20026;-72
2023/09/05 07:08:05;;;;;;;0.00;0.00;;;;;;;19.18;75.90;100429.03;5009041;28;20951;-74
2023/09/05 07:10:31;;;;;;;0.00;0.00;;;;;;;19.27;75.39;100436.56;5021154;28;20033;-71
2023/09/05 07:12:56;;;;;;;0.00;0.00;;;;;;;19.42;75.32;100429.72;4992308;28;20428;-74
2023/09/05 07:15:22;;;;;;;0.00;0.00;;;;;;;19.54;74.64;100422.38;5011915;28;20045;-74
2023/09/05 07:17:47;;;;;;;0.00;0.00;;;;;;;19.75;74.79;100420.91;5006848;28;20770;-73
2023/09/05 07:20:13;;;;;;;0.00;0.00;;;;;;;19.95;74.22;100416.66;5015306;28;20506;-71
2023/09/05 07:22:38;;;;;;;0.00;0.00;;;;;;;20.19;73.38;100413.31;5023137;28;20032;-74
2023/09/05 07:25:04;;;;;;;0.00;0.00;;;;;;;20.34;72.66;100410.00;5009765;28;20052;-73
2023/09/05 07:27:29;;;;;;;0.00;0.00;;;;;;;20.39;72.18;100400.69;5002139;28;20026;-74
2023/09/05 07:29:55;;;;;;;0.00;0.00;;;;;;;20.59;71.88;100410.25;4982803;28;20041;-71
2023/09/05 07:32:20;;;;;;;0.00;0.00;;;;;;;20.75;71.21;100407.75;4982129;28;20568;-72
2023/09/05 07:34:48;;;;;;;0.00;0.00;;;;;;;20.94;70.74;100407.28;5019088;28;20038;-73
2023/09/05 07:37:15;;;;;;;0.00;0.00;;;;;;;21.15;70.02;100403.72;5025532;28;20078;-73
2023/09/05 07:39:44;;;;;;;0.00;0.00;;;;;;;21.19;69.25;100394.34;5004548;28;20538;-73
2023/09/05 07:42:12;;;;;;;0.00;0.00;;;;;;;21.36;69.07;100421.22;5019086;28;20090;-72
2023/09/05 07:44:39;;;;;;;0.00;0.00;;;;;;;21.53;68.65;100413.91;5011484;28;20026;-73
2023/09/05 07:47:05;;;;;;;0.00;0.00;;;;;;;21.58;67.87;100410.91;5017297;28;20029;-72
2023/09/05 07:49:35;;;;;;;0.00;0.00;;;;;;;21.70;67.47;100402.63;5012181;28;20032;-72
2023/09/05 07:52:00;;;;;;;0.00;0.00;;;;;;;21.85;67.35;100406.72;5013502;28;20029;-72
2023/09/05 07:54:26;;;;;;;0.00;0.00;;;;;;;21.99;66.91;100397.25;4994612;28;20038;-73
2023/09/05 07:56:51;;;;;;;0.00;0.00;;;;;;;22.24;65.79;100398.09;5016381;28;20041;-72
2023/09/05 07:59:17;;;;;;;0.00;0.00;;;;;;;22.43;65.73;100394.81;5018300;28;20021;-73
2023/09/05 08:01:42;;;;;;;0.00;0.00;;;;;;;22.69;64.80;100397.22;5012099;28;20040;-73
2023/09/05 08:04:08;;;;;;;0.00;0.00;;;;;;;23.07;63.27;100390.47;5012111;28;20041;-73
2023/09/05 08:06:33;;;;;;;0.00;0.00;;;;;;;23.36;62.09;100388.53;5021529;28;20493;-74
2023/09/05 08:08:59;;;;;;;0.00;0.00;;;;;;;23.66;61.80;100404.97;5015540;28;20029;-73
2023/09/05 08:11:25;;;;;;;0.00;0.00;;;;;;;23.88;60.90;100398.00;5022597;28;20162;-74
2023/09/05 08:13:50;;;;;;;0.00;0.00;;;;;;;24.30;60.46;100402.28;5019797;28;20087;-72
2023/09/05 08:16:16;;;;;;;0.00;0.00;;;;;;;25.17;58.00;100408.75;5001033;28;20037;-73
2023/09/05 08:18:41;;;;;;;0.00;0.00;;;;;;;26.56;53.88;100400.69;5015567;28;20030;-73
2023/09/05 08:21:08;;;;;;;0.00;0.00;;;;;;;28.09;50.03;100407.13;4986416;28;20044;-74
2023/09/05 08:23:34;;;;;;;0.00;0.00;;;;;;;29.50;46.06;100404.13;5020368;28;20117;-73
2023/09/05 08:25:59;;;;;;;0.00;0.00;;;;;;;30.93;42.97;100402.69;5005722;28;20041;-72
2023/09/05 08:28:28;;;;;;;0.00;0.00;;;;;;;32.21;40.81;100398.91;5014059;28;20152;-74
2023/09/05 08:30:59;;;;;;;0.00;0.00;;;;;;;33.14;38.62;100408.56;5013665;28;20018;-74
2023/09/05 08:33:26;;;;;;;0.00;0.00;;;;;;;34.37;37.17;100412.63;5014159;28;20029;-74
2023/09/05 08:35:53;;;;;;;0.00;0.00;;;;;;;34.89;34.42;100408.50;5013034;28;20040;-74
2023/09/05 08:38:18;;;;;;;0.00;0.00;;;;;;;35.21;33.88;100409.91;5012595;28;20029;-74
2023/09/05 08:40:47;;;;;;;0.00;0.00;;;;;;;36.07;33.32;100410.09;5020348;28;20128;-74
2023/09/05 08:43:15;;;;;;;0.00;0.00;;;;;;;36.96;31.85;100412.75;5008620;28;20033;-75
2023/09/05 08:45:43;;;;;;;0.00;0.00;;;;;;;38.41;30.42;100418.59;5008431;28;20101;-73
2023/09/05 08:48:09;;;;;;;0.00;0.00;;;;;;;39.72;28.53;100429.88;5015655;28;20072;-74
2023/09/05 08:50:36;;;;;;;0.00;0.00;;;;;;;40.86;27.04;100424.78;5009346;28;20041;-74
2023/09/05 08:53:12;;;;;;;0.00;0.00;;;;;;;41.51;25.50;100417.75;5019475;28;20062;-74
2023/09/05 08:55:40;;;;;;;0.00;0.00;;;;;;;42.11;24.77;100415.31;5007451;28;20091;-74
2023/09/05 08:58:10;;;;;;;0.00;0.00;;;;;;;42.63;24.07;100415.19;5008518;28;20042;-74
2023/09/05 09:00:36;;;;;;;0.00;0.00;;;;;;;43.43;23.40;100406.06;4996958;28;20451;-74
2023/09/05 09:03:05;;;;;;;0.00;0.00;;;;;;;44.12;22.89;100411.59;5000595;28;20033;-73
2023/09/05 09:05:30;;;;;;;0.00;0.00;;;;;;;44.45;21.80;100414.19;5009010;28;20034;-74
2023/09/05 09:07:57;;;;;;;0.00;0.00;;;;;;;44.37;21.66;100415.13;4995935;28;20040;-74
2023/09/05 09:10:30;;;;;;;0.00;0.00;;;;;;;44.30;21.32;100418.44;5016819;28;20032;-73
2023/09/05 09:13:17;;;;;;;0.00;0.00;;;;;;;45.01;21.17;100415.38;5022158;28;20394;-74
2023/09/05 09:15:43;;;;;;;0.00;0.00;;;;;;;45.38;20.36;100423.38;5007396;28;20491;-74
2023/09/05 09:18:17;;;;;;;0.00;0.00;;;;;;;45.76;20.17;100430.03;5022633;28;20030;-75
2023/09/05 09:20:51;;;;;;;0.00;0.00;;;;;;;46.17;19.93;100419.03;5003130;28;20042;-75
2023/09/05 09:23:28;;;;;;;0.00;0.00;;;;;;;46.69;19.12;100418.00;5019513;28;20029;-74
2023/09/05 09:25:54;;;;;;;0.00;0.00;;;;;;;46.88;19.08;100399.38;5016710;28;20058;-74
2023/09/05 09:28:34;;;;;;;0.00;0.00;;;;;;;47.31;18.52;100402.88;4993750;28;20506;-74
2023/09/05 09:31:05;;;;;;;0.00;0.00;;;;;;;47.16;17.34;100408.16;5009019;28;20140;-74
2023/09/05 09:33:32;;;;;;;0.00;0.00;;;;;;;47.11;18.11;100400.25;5019519;28;20714;-75
2023/09/05 09:36:12;;;;;;;0.00;0.00;;;;;;;47.11;17.68;100388.66;5006715;28;20075;-73
2023/09/05 09:38:41;;;;;;;0.00;0.00;;;;;;;46.73;17.66;100385.16;5008842;28;20025;-73
2023/09/05 09:41:07;;;;;;;0.00;0.00;;;;;;;46.33;17.61;100391.53;5016402;28;20029;-74
2023/09/05 09:43:34;;;;;;;0.00;0.00;;;;;;;46.66;17.44;100378.56;4995301;28;20034;-74
2023/09/05 09:46:05;;;;;;;0.00;0.00;;;;;;;46.76;17.53;100378.31;5012110;28;20101;-74
2023/09/05 09:48:35;;;;;;;0.00;0.00;;;;;;;46.74;17.13;100378.06;5018099;28;20034;-74
2023/09/05 09:51:04;;;;;;;0.00;0.00;;;;;;;47.26;16.99;100373.94;5017569;28;20021;-75
2023/09/05 09:53:34;;;;;;;0.00;0.00;;;;;;;48.08;16.43;100380.75;5012271;28;20038;-74
2023/09/05 09:56:03;;;;;;;0.00;0.00;;;;;;;48.60;15.77;100374.25;5013556;28;20029;-74
2023/09/05 09:58:30;;;;;;;0.00;0.00;;;;;;;48.82;15.40;100355.94;4998329;28;20121;-74
2023/09/05 10:00:58;;;;;;;0.00;0.00;;;;;;;49.55;15.28;100362.53;5015365;28;20026;-74
2023/09/05 10:03:25;;;;;;;0.00;0.00;;;;;;;49.79;14.78;100359.63;5016735;28;20731;-75
2023/09/05 10:05:52;;;;;;;0.00;0.00;;;;;;;50.09;14.75;100353.00;5012640;28;20088;-76
2023/09/05 10:08:20;;;;;;;0.00;0.00;;;;;;;49.92;14.11;100346.59;5020764;28;20633;-74
2023/09/05 10:10:46;;;;;;;0.00;0.00;;;;;;;50.54;14.52;100339.22;5006385;28;20040;-74
2023/09/05 10:13:14;;;;;;;0.00;0.00;;;;;;;51.42;14.13;100334.69;5007371;28;20396;-74
2023/09/05 10:15:41;;;;;;;0.00;0.00;;;;;;;52.04;13.35;100323.22;5013550;28;20033;-74
2023/09/05 10:18:12;;;;;;;0.00;0.00;;;;;;;51.98;13.54;100326.22;5010375;28;20053;-75
2023/09/05 10:20:39;;;;;;;0.00;0.00;;;;;;;52.43;13.60;100318.66;5013122;28;20045;-74
2023/09/05 10:23:06;;;;;;;0.00;0.00;;;;;;;53.31;12.95;100327.16;5018088;28;20029;-75
2023/09/05 10:25:34;;;;;;;0.00;0.00;;;;;;;53.33;12.29;100321.53;5008538;28;20053;-73
2023/09/05 10:28:00;;;;;;;0.00;0.00;;;;;;;52.44;12.97;100321.00;5023524;28;20371;-74
2023/09/05 10:30:27;;;;;;;0.00;0.00;;;;;;;53.15;12.71;100321.19;5020445;28;20044;-74
2023/09/05 10:32:53;;;;;;;0.00;0.00;;;;;;;53.71;12.64;100316.00;5016933;28;20028;-75
2023/09/05 10:35:32;;;;;;;0.00;0.00;;;;;;;53.68;11.90;100304.66;5008322;28;20161;-74
2023/09/05 10:38:04;;;;;;;0.00;0.00;;;;;;;54.18;11.92;100317.03;5007276;28;20045;-74
2023/09/05 10:40:35;;;;;;;0.00;0.00;;;;;;;54.72;11.69;100316.44;5018216;28;20026;-74
2023/09/05 10:43:03;;;;;;;0.00;0.00;;;;;;;55.37;11.65;100315.34;5013798;28;20064;-75
2023/09/05 10:45:29;;;;;;;0.00;0.00;;;;;;;55.70;11.17;100319.22;5019702;28;20527;-74
2023/09/05 10:48:20;;;;;;;0.00;0.00;;;;;;;55.69;11.15;100316.88;5022373;28;20030;-74
2023/09/05 10:51:08;;;;;;;0.00;0.00;;;;;;;56.28;10.37;100325.28;5012554;28;20120;-75
2023/09/05 10:53:38;;;;;;;0.00;0.00;;;;;;;56.98;10.40;100330.78;5009249;28;20173;-74
2023/09/05 10:56:04;;;;;;;0.00;0.00;;;;;;;57.26;10.51;100314.09;5008117;28;20452;-74
2023/09/05 10:58:53;;;;;;;0.00;0.00;;;;;;;57.30;9.89;100321.09;5020407;28;20043;-75
2023/09/05 11:01:29;;;;;;;0.00;0.00;;;;;;;57.84;9.99;100319.81;5014035;28;20463;-74
2023/09/05 11:04:07;;;;;;;0.00;0.00;;;;;;;57.98;10.17;100305.50;5010468;28;20232;-74
2023/09/05 11:06:42;;;;;;;0.00;0.00;;;;;;;58.47;9.48;100297.06;5005461;28;20761;-73
2023/09/05 11:09:08;;;;;;;0.00;0.00;;;;;;;58.24;9.22;100288.53;5012359;28;20053;-74
2023/09/05 11:11:37;;;;;;;0.00;0.00;;;;;;;57.95;9.23;100298.69;5012503;28;20065;-74
2023/09/05 11:14:06;;;;;;;0.00;0.00;;;;;;;58.07;9.54;100301.06;5012858;28;21255;-74
2023/09/05 11:16:51;;;;;;;0.00;0.00;;;;;;;58.00;9.63;100291.00;5014839;28;20075;-74
2023/09/05 11:19:45;;;;;;;0.00;0.00;;;;;;;57.96;8.94;100287.69;5014121;28;20030;-74
2023/09/05 11:22:22;;;;;;;0.00;0.00;;;;;;;58.27;9.17;100273.38;5014493;28;20029;-73
2023/09/05 11:24:59;;;;;;;0.00;0.00;;;;;;;58.31;8.84;100282.53;5013753;28;20117;-72
2023/09/05 11:27:28;;;;;;;0.00;0.00;;;;;;;58.50;9.04;100272.28;5029617;28;20040;-73